Terminal Aerodrome Forecast
Issued by NWS

Home | Current Version | Previous Version | Text Only | Print | Product List | Glossary Off
Versions: 1 2 3 4 5 6 7 8 9 10 11 12 13 14 15 16 17 18 19 20 21

356
FTUS43 KBIS 222226 AAB
TAFMOT
TAF AMD
KMOT 222226Z 2222/2318 35007KT P6SM SCT015
     FM230000 33006KT P6SM OVC040
     FM230400 32005KT 2SM BR BKN040
     FM230500 32005KT 1SM BR OVC035
     FM231000 VRB03KT 1SM BR OVC008
     FM231700 06006KT P6SM OVC008=

USA.gov is the U.S. government's official web portal to all federal, state and local government web resources and services.